createdAt,value
2022-12-25T00:00:27.933Z,95.85
2022-12-25T00:03:31.223Z,95.02
2022-12-25T00:06:33.996Z,94.78
2022-12-25T00:09:36.677Z,95.21
2022-12-25T00:12:39.493Z,95.62
2022-12-25T00:15:42.182Z,95.95
2022-12-25T00:18:45.766Z,95.98
2022-12-25T00:21:48.244Z,95.98
2022-12-25T00:24:51.193Z,96.05
2022-12-25T00:27:53.552Z,96.04
2022-12-25T00:30:56.529Z,95.90
2022-12-25T00:33:59.234Z,96.02
2022-12-25T00:37:01.962Z,95.74
2022-12-25T00:40:04.928Z,96.05
2022-12-25T00:43:07.633Z,96.08
2022-12-25T00:46:13.214Z,96.47
2022-12-25T00:49:16.394Z,96.30
2022-12-25T00:52:19.158Z,95.47
2022-12-25T00:55:22.194Z,96.32
2022-12-25T00:58:26.637Z,96.05
2022-12-25T01:01:29.809Z,96.01
2022-12-25T01:04:32.881Z,95.99
2022-12-25T01:07:35.720Z,96.12
2022-12-25T01:10:38.468Z,95.28
2022-12-25T01:13:41.244Z,95.16
2022-12-25T01:16:44.005Z,96.03
2022-12-25T01:19:47.261Z,95.47
2022-12-25T01:22:49.671Z,95.94
2022-12-25T01:25:52.688Z,96.06
2022-12-25T01:28:55.153Z,96.56
2022-12-25T01:31:57.897Z,96.18
2022-12-25T01:35:00.508Z,96.10
2022-12-25T01:38:03.188Z,95.84
2022-12-25T01:41:06.241Z,96.06
2022-12-25T01:44:14.882Z,95.56
2022-12-25T01:47:18.446Z,95.28
2022-12-25T01:50:22.609Z,94.73
2022-12-25T01:53:26.789Z,94.44
2022-12-25T01:56:30.449Z,95.05
2022-12-25T01:59:33.304Z,95.39
2022-12-25T02:02:37.251Z,96.21
2022-12-25T02:05:40.327Z,96.47
2022-12-25T02:08:43.865Z,96.65
2022-12-25T02:11:58.979Z,96.58
2022-12-25T02:15:08.385Z,96.93
2022-12-25T02:18:53.589Z,96.07
2022-12-25T02:22:15.236Z,94.53
2022-12-25T02:25:46.726Z,94.38
2022-12-25T02:29:03.230Z,94.73
2022-12-25T02:32:42.500Z,94.68
2022-12-25T02:35:49.946Z,94.94
2022-12-25T02:39:15.644Z,94.89
2022-12-25T02:42:48.682Z,93.30
2022-12-25T02:46:17.038Z,93.27
2022-12-25T02:49:43.262Z,93.85
2022-12-25T02:53:06.064Z,95.00
2022-12-25T02:56:28.042Z,94.25
2022-12-25T02:59:51.853Z,94.97
2022-12-25T03:03:14.268Z,94.89
2022-12-25T03:06:38.107Z,94.83
2022-12-25T03:10:05.213Z,94.22
2022-12-25T03:13:20.008Z,94.46
2022-12-25T03:16:41.772Z,95.20
2022-12-25T03:20:03.270Z,95.39
2022-12-25T03:23:25.940Z,95.32
2022-12-25T03:26:47.938Z,94.87
2022-12-25T03:30:09.099Z,94.88
2022-12-25T03:33:43.350Z,95.36
2022-12-25T03:36:46.805Z,95.20
2022-12-25T03:40:23.432Z,95.11
2022-12-25T03:44:05.743Z,95.77
2022-12-25T03:47:33.257Z,95.70
2022-12-25T03:51:06.231Z,96.03
2022-12-25T03:54:29.555Z,96.28
2022-12-25T03:57:53.610Z,95.75
2022-12-25T04:01:15.299Z,95.42
2022-12-25T04:04:36.325Z,95.76
2022-12-25T04:07:58.123Z,95.68
2022-12-25T04:11:19.244Z,94.60
2022-12-25T04:14:40.855Z,93.91
2022-12-25T04:18:02.237Z,93.16
2022-12-25T04:21:23.565Z,93.01
2022-12-25T04:24:44.984Z,93.08
2022-12-25T04:28:05.907Z,93.93
2022-12-25T04:31:27.122Z,94.49
2022-12-25T04:34:48.449Z,94.22
2022-12-25T04:37:51.341Z,94.37
2022-12-25T04:40:54.332Z,94.07
2022-12-25T04:43:56.813Z,93.90
2022-12-25T04:46:59.821Z,94.86
2022-12-25T04:50:02.572Z,95.24
2022-12-25T04:53:05.309Z,94.46
2022-12-25T04:56:08.187Z,94.41
2022-12-25T04:59:12.247Z,95.42
2022-12-25T05:02:15.174Z,95.81
2022-12-25T05:05:18.081Z,95.50
2022-12-25T05:08:20.787Z,95.68
2022-12-25T05:11:23.546Z,96.00
2022-12-25T05:14:25.967Z,96.37
2022-12-25T05:17:29.184Z,96.63
2022-12-25T05:20:38.011Z,96.82
2022-12-25T05:23:48.876Z,96.87
2022-12-25T05:26:51.770Z,96.98
2022-12-25T05:29:54.533Z,96.79
2022-12-25T05:32:57.294Z,96.50
2022-12-25T05:36:04.742Z,96.68
2022-12-25T05:39:07.592Z,96.40
2022-12-25T05:42:10.625Z,96.40
2022-12-25T05:45:13.205Z,95.93
2022-12-25T05:48:16.824Z,95.45
2022-12-25T05:51:19.622Z,95.85
2022-12-25T05:54:22.344Z,95.92
2022-12-25T05:57:25.184Z,95.87
2022-12-25T06:00:28.742Z,95.98
2022-12-25T06:03:31.584Z,96.34
2022-12-25T06:06:34.758Z,95.45
2022-12-25T06:09:37.253Z,95.29
2022-12-25T06:12:40.132Z,95.58
2022-12-25T06:15:42.587Z,95.68
2022-12-25T06:18:48.241Z,95.46
2022-12-25T06:21:54.495Z,95.77
2022-12-25T06:24:57.695Z,96.26
2022-12-25T06:28:00.510Z,95.94
2022-12-25T06:31:12.233Z,95.73
2022-12-25T06:34:16.589Z,95.70
2022-12-25T06:37:20.136Z,95.53
2022-12-25T06:40:22.901Z,94.88
2022-12-25T06:43:25.511Z,94.55
2022-12-25T06:46:29.909Z,94.92
2022-12-25T06:49:32.944Z,94.76
2022-12-25T06:52:35.658Z,94.70
2022-12-25T06:55:38.206Z,95.06
2022-12-25T06:58:42.943Z,94.65
2022-12-25T07:01:56.498Z,94.29
2022-12-25T07:05:00.065Z,94.09
2022-12-25T07:08:02.718Z,93.91
2022-12-25T07:11:05.603Z,91.23
2022-12-25T07:14:08.120Z,83.54
2022-12-25T07:17:10.867Z,78.14
2022-12-25T07:20:13.649Z,74.60
2022-12-25T07:23:16.311Z,71.94
2022-12-25T07:26:19.474Z,70.64
2022-12-25T07:29:22.098Z,67.04
2022-12-25T07:32:24.780Z,65.95
2022-12-25T07:35:27.389Z,66.15
2022-12-25T07:38:30.613Z,67.49
2022-12-25T07:41:34.046Z,66.54
2022-12-25T07:44:53.882Z,68.17
2022-12-25T07:47:59.891Z,68.53
2022-12-25T07:51:08.622Z,70.97
2022-12-25T07:54:11.184Z,71.95
2022-12-25T07:57:13.882Z,72.63
2022-12-25T08:00:16.999Z,67.69
2022-12-25T08:03:20.652Z,63.85
2022-12-25T08:06:29.524Z,63.72
2022-12-25T08:09:32.729Z,62.17
2022-12-25T08:12:35.191Z,58.32
2022-12-25T08:15:37.985Z,57.77
2022-12-25T08:18:40.695Z,58.92
2022-12-25T08:21:43.388Z,59.35
2022-12-25T08:24:45.884Z,59.19
2022-12-25T08:27:48.560Z,62.61
2022-12-25T08:30:51.435Z,62.09
2022-12-25T08:33:56.974Z,63.50
2022-12-25T08:36:59.661Z,62.06
2022-12-25T08:40:02.878Z,61.53
2022-12-25T08:43:05.784Z,64.52
2022-12-25T08:46:09.002Z,63.33
2022-12-25T08:49:11.547Z,61.17
2022-12-25T08:52:14.622Z,61.19
2022-12-25T08:55:17.749Z,57.92
2022-12-25T08:58:20.266Z,55.85
2022-12-25T09:01:23.048Z,54.86
2022-12-25T09:04:26.058Z,54.24
2022-12-25T09:07:28.644Z,52.27
2022-12-25T09:10:31.817Z,52.31
2022-12-25T09:13:34.962Z,53.44
2022-12-25T09:16:37.665Z,53.68
2022-12-25T09:19:40.291Z,51.12
2022-12-25T09:22:43.210Z,50.03
2022-12-25T09:25:46.163Z,51.21
2022-12-25T09:28:52.384Z,50.90
2022-12-25T09:31:55.537Z,51.31
2022-12-25T09:34:58.525Z,50.25
2022-12-25T09:38:01.228Z,51.48
2022-12-25T09:41:25.349Z,50.43
2022-12-25T09:44:34.837Z,49.59
2022-12-25T09:47:40.217Z,50.71
2022-12-25T09:50:48.715Z,50.37
2022-12-25T09:54:01.227Z,49.98
2022-12-25T09:57:04.058Z,50.95
2022-12-25T10:00:17.943Z,48.72
2022-12-25T10:03:44.343Z,49.24
2022-12-25T10:07:04.329Z,49.41
2022-12-25T10:10:33.165Z,50.00
2022-12-25T10:13:45.155Z,50.42
2022-12-25T10:16:53.474Z,49.47
2022-12-25T10:20:13.070Z,49.44
2022-12-25T10:23:29.542Z,49.95
2022-12-25T10:26:34.493Z,50.42
2022-12-25T10:29:38.619Z,51.18
2022-12-25T10:32:41.239Z,50.71
2022-12-25T10:35:44.509Z,50.52
2022-12-25T10:38:48.157Z,51.65
2022-12-25T10:42:04.508Z,50.32
2022-12-25T10:45:09.613Z,50.58
2022-12-25T10:48:20.757Z,51.34
2022-12-25T10:51:41.166Z,51.81
2022-12-25T10:54:43.719Z,54.74
2022-12-25T10:57:47.164Z,54.86
2022-12-25T11:01:01.290Z,56.07
2022-12-25T11:04:03.878Z,57.54
2022-12-25T11:07:14.681Z,58.96
2022-12-25T11:10:25.353Z,59.00
2022-12-25T11:13:29.901Z,59.40
2022-12-25T11:16:40.425Z,57.64
2022-12-25T11:19:52.453Z,60.23
2022-12-25T11:22:55.468Z,59.33
2022-12-25T11:26:07.177Z,59.98
2022-12-25T11:29:21.953Z,57.69
2022-12-25T11:32:42.592Z,60.68
2022-12-25T11:35:53.189Z,62.89
2022-12-25T11:38:57.130Z,62.26
2022-12-25T11:42:06.060Z,61.04
2022-12-25T11:45:16.866Z,60.77
2022-12-25T11:48:44.422Z,60.25
2022-12-25T11:51:50.581Z,60.92
2022-12-25T11:55:04.209Z,62.12
2022-12-25T11:58:18.218Z,62.80
2022-12-25T12:01:37.325Z,61.79
2022-12-25T12:04:44.903Z,61.23
2022-12-25T12:07:57.148Z,62.15
2022-12-25T12:11:16.126Z,62.90
2022-12-25T12:14:51.142Z,62.71
2022-12-25T12:17:53.731Z,61.92
2022-12-25T12:21:18.425Z,62.58
2022-12-25T12:24:22.811Z,61.54
2022-12-25T12:27:39.625Z,61.79
2022-12-25T12:30:42.196Z,60.47
2022-12-25T12:33:59.911Z,60.79
2022-12-25T12:37:11.316Z,60.38
2022-12-25T12:40:33.289Z,59.23
2022-12-25T12:43:43.033Z,60.09
2022-12-25T12:46:57.547Z,59.29
2022-12-25T12:50:01.607Z,58.58
2022-12-25T12:53:24.604Z,58.58
2022-12-25T12:56:27.256Z,58.25
2022-12-25T12:59:43.878Z,58.09
2022-12-25T13:02:58.710Z,58.34
2022-12-25T13:06:14.978Z,58.72
2022-12-25T13:09:35.397Z,59.34
2022-12-25T13:12:38.426Z,58.78
2022-12-25T13:15:41.199Z,59.04
2022-12-25T13:18:44.150Z,59.22
2022-12-25T13:21:56.605Z,58.82
2022-12-25T13:25:05.500Z,59.78
2022-12-25T13:28:14.175Z,60.98
2022-12-25T13:31:22.147Z,61.06
2022-12-25T13:34:31.811Z,61.17
2022-12-25T13:37:35.360Z,61.74
2022-12-25T13:40:38.090Z,63.31
2022-12-25T13:43:43.606Z,63.08
2022-12-25T13:46:46.522Z,64.54
2022-12-25T13:49:52.335Z,64.77
2022-12-25T13:52:57.514Z,66.11
2022-12-25T13:56:00.564Z,66.80
2022-12-25T13:59:03.808Z,67.65
2022-12-25T14:02:19.166Z,67.65
2022-12-25T14:05:42.387Z,69.09
2022-12-25T14:08:47.320Z,69.39
2022-12-25T14:11:52.433Z,70.34
2022-12-25T14:14:55.748Z,71.67
2022-12-25T14:17:58.852Z,72.64
2022-12-25T14:21:02.865Z,72.45
2022-12-25T14:24:13.687Z,73.90
2022-12-25T14:27:26.699Z,74.25
2022-12-25T14:30:29.804Z,75.25
2022-12-25T14:33:39.334Z,77.17
2022-12-25T14:36:42.460Z,79.13
2022-12-25T14:39:47.710Z,79.57
2022-12-25T14:43:19.971Z,81.79
2022-12-25T14:46:28.557Z,83.01
2022-12-25T14:49:32.628Z,82.58
2022-12-25T14:55:52.234Z,82.91
2022-12-25T14:58:59.174Z,83.76
2022-12-25T15:02:01.806Z,83.59
2022-12-25T15:05:05.360Z,83.17
2022-12-25T15:08:13.746Z,83.39
2022-12-25T15:11:16.615Z,83.37
2022-12-25T15:14:20.056Z,83.64
2022-12-25T15:17:28.080Z,84.08
2022-12-25T15:20:32.620Z,84.27
2022-12-25T15:23:35.482Z,84.74
2022-12-25T15:26:38.461Z,85.35
2022-12-25T15:30:11.296Z,85.62
2022-12-25T15:33:03.594Z,86.59
2022-12-25T15:36:06.873Z,86.56
2022-12-25T15:39:10.333Z,87.68
2022-12-25T15:42:15.069Z,88.65
2022-12-25T15:45:22.433Z,88.69
2022-12-25T15:48:24.964Z,89.73
2022-12-25T15:51:27.908Z,89.55
2022-12-25T15:54:32.540Z,91.06
2022-12-25T15:57:35.495Z,90.68
2022-12-25T16:00:38.376Z,90.39
2022-12-25T16:03:41.646Z,90.45
2022-12-25T16:06:44.633Z,90.31
2022-12-25T16:09:47.217Z,90.53
2022-12-25T16:12:50.018Z,89.62
2022-12-25T16:15:53.430Z,90.41
2022-12-25T16:18:56.251Z,89.97
2022-12-25T16:21:59.031Z,90.39
2022-12-25T16:25:01.805Z,90.04
2022-12-25T16:28:06.174Z,90.34
2022-12-25T16:31:09.174Z,90.52
2022-12-25T16:34:11.681Z,90.88
2022-12-25T16:37:14.557Z,90.85
2022-12-25T16:40:18.072Z,90.84
2022-12-25T16:43:24.120Z,91.02
2022-12-25T16:46:27.383Z,91.17
2022-12-25T16:49:29.995Z,90.88
2022-12-25T16:52:34.685Z,91.36
2022-12-25T16:55:40.257Z,91.19
2022-12-25T16:58:44.296Z,91.53
2022-12-25T17:01:47.533Z,92.11
2022-12-25T17:04:50.357Z,92.14
2022-12-25T17:07:53.582Z,92.24
2022-12-25T17:10:56.023Z,92.43
2022-12-25T17:14:03.962Z,91.77
2022-12-25T17:17:07.046Z,92.77
2022-12-25T17:20:10.342Z,92.41
2022-12-25T17:23:13.151Z,92.39
2022-12-25T17:26:15.947Z,92.59
2022-12-25T17:29:22.328Z,92.91
2022-12-25T17:32:25.944Z,93.16
2022-12-25T17:35:28.260Z,93.19
2022-12-25T17:38:32.391Z,93.19
2022-12-25T17:41:36.100Z,92.85
2022-12-25T17:44:39.032Z,92.54
2022-12-25T17:47:41.634Z,92.73
2022-12-25T17:50:44.767Z,92.71
2022-12-25T17:53:50.561Z,92.78
2022-12-25T17:56:53.603Z,93.44
2022-12-25T17:59:56.485Z,93.50
2022-12-25T18:03:05.753Z,93.47
2022-12-25T18:06:16.115Z,93.09
2022-12-25T18:09:20.160Z,93.41
2022-12-25T18:12:22.762Z,92.91
2022-12-25T18:15:25.828Z,93.20
2022-12-25T18:18:29.413Z,93.32
2022-12-25T18:21:32.161Z,94.33
2022-12-25T18:24:34.692Z,94.63
2022-12-25T18:27:37.493Z,93.81
2022-12-25T18:30:42.258Z,93.70
2022-12-25T18:33:46.306Z,94.20
2022-12-25T18:36:49.116Z,93.88
2022-12-25T18:39:52.023Z,93.91
2022-12-25T18:43:01.064Z,94.20
2022-12-25T18:46:06.836Z,94.74
2022-12-25T18:49:11.054Z,95.08
2022-12-25T18:52:49.351Z,95.26
2022-12-25T18:55:36.502Z,95.13
2022-12-25T18:58:39.831Z,95.19
2022-12-25T19:01:42.693Z,95.14
2022-12-25T19:04:45.835Z,94.49
2022-12-25T19:07:48.287Z,93.62
2022-12-25T19:10:51.482Z,93.32
2022-12-25T19:13:53.941Z,94.20
2022-12-25T19:16:57.195Z,94.33
2022-12-25T19:20:00.604Z,94.30
2022-12-25T19:23:04.027Z,93.88
2022-12-25T19:26:09.042Z,93.86
2022-12-25T19:29:12.139Z,94.00
2022-12-25T19:32:14.775Z,94.13
2022-12-25T19:35:18.050Z,94.33
2022-12-25T19:38:21.442Z,93.91
2022-12-25T19:41:24.282Z,94.16
2022-12-25T19:44:27.096Z,94.25
2022-12-25T19:47:29.893Z,94.90
2022-12-25T19:50:33.045Z,94.82
2022-12-25T19:53:35.790Z,94.75
2022-12-25T19:56:38.464Z,94.74
2022-12-25T19:59:41.529Z,94.74
2022-12-25T20:02:44.112Z,95.46
2022-12-25T20:05:47.161Z,95.61
2022-12-25T20:08:52.689Z,95.31
2022-12-25T20:11:55.863Z,95.31
2022-12-25T20:14:58.338Z,95.10
2022-12-25T20:18:03.062Z,94.58
2022-12-25T20:21:10.392Z,94.66
2022-12-25T20:24:13.261Z,94.65
2022-12-25T20:27:15.962Z,94.39
2022-12-25T20:30:18.958Z,94.21
2022-12-25T20:33:22.366Z,94.55
2022-12-25T20:36:28.540Z,94.66
2022-12-25T20:39:35.286Z,94.36
2022-12-25T20:42:38.920Z,94.38
2022-12-25T20:45:42.101Z,94.49
2022-12-25T20:48:45.163Z,94.44
2022-12-25T20:51:48.620Z,94.24
2022-12-25T20:54:51.498Z,94.31
2022-12-25T20:57:54.148Z,94.29
2022-12-25T21:00:57.437Z,94.13
2022-12-25T21:04:00.278Z,93.95
2022-12-25T21:07:03.572Z,94.28
2022-12-25T21:10:06.789Z,94.30
2022-12-25T21:13:10.080Z,94.68
2022-12-25T21:16:19.008Z,94.68
2022-12-25T21:19:21.741Z,94.36
2022-12-25T21:22:24.819Z,94.17
2022-12-25T21:25:27.909Z,94.24
2022-12-25T21:28:32.347Z,93.64
2022-12-25T21:31:55.130Z,93.82
2022-12-25T21:34:58.060Z,94.18
2022-12-25T21:38:00.623Z,94.14
2022-12-25T21:41:08.744Z,94.32
2022-12-25T21:44:11.835Z,94.69
2022-12-25T21:47:14.457Z,94.76
2022-12-25T21:50:39.255Z,94.79
2022-12-25T21:53:42.238Z,94.52
2022-12-25T21:56:47.590Z,94.47
2022-12-25T21:59:50.206Z,94.53
2022-12-25T22:02:53.435Z,94.25
2022-12-25T22:06:21.469Z,94.01
2022-12-25T22:09:24.893Z,94.19
2022-12-25T22:12:45.782Z,94.00
2022-12-25T22:16:07.631Z,94.11
2022-12-25T22:19:28.393Z,94.07
2022-12-25T22:22:32.127Z,93.90
2022-12-25T22:25:34.639Z,94.06
2022-12-25T22:28:37.477Z,93.79
2022-12-25T22:31:46.385Z,94.14
2022-12-25T22:34:49.861Z,94.02
2022-12-25T22:37:54.007Z,94.02
2022-12-25T22:40:57.208Z,93.84
2022-12-25T22:44:17.056Z,93.93
2022-12-25T22:47:20.859Z,93.77
2022-12-25T22:50:23.370Z,94.12
2022-12-25T22:53:26.367Z,94.51
2022-12-25T22:56:29.043Z,94.99
2022-12-25T22:59:33.186Z,95.08
2022-12-25T23:02:35.991Z,95.52
2022-12-25T23:05:38.838Z,95.20
2022-12-25T23:08:41.532Z,95.47
2022-12-25T23:11:44.615Z,95.41
2022-12-25T23:14:47.034Z,95.12
2022-12-25T23:18:08.478Z,95.10
2022-12-25T23:21:34.202Z,95.15
2022-12-25T23:24:56.377Z,95.54
2022-12-25T23:27:58.837Z,95.14
2022-12-25T23:31:01.875Z,95.09
2022-12-25T23:34:06.062Z,95.07
2022-12-25T23:37:10.823Z,95.15
2022-12-25T23:40:13.207Z,95.38
2022-12-25T23:43:16.008Z,95.17
2022-12-25T23:46:18.621Z,95.38
2022-12-25T23:49:23.137Z,95.43
2022-12-25T23:52:25.853Z,95.60
2022-12-25T23:55:28.505Z,95.88
2022-12-25T23:58:30.932Z,95.31
